Time;durP1;ratioP1;P1;durP2;ratioP2;P2;SDS_P1;SDS_P2;PMS_P1;PMS_P2;Temp;Humidity;BMP_temperature;BMP_pressure;BME280_temperature;BME280_humidity;BME280_pressure;Samples;Min_cycle;Max_cycle;Signal;HPM_P1;HPM_P2
2023/04/17 00:01:37;;;;;;;7.85;4.03;;;;;;;;;;12980358;19;19998;-69
2023/04/17 00:05:57;;;;;;;7.22;4.43;;;;;;;;;;12980150;19;20465;-68
2023/04/17 00:10:15;;;;;;;6.03;4.20;;;;;;;;;;12979844;19;20484;-68
2023/04/17 00:14:33;;;;;;;;;;;;;;;;;;12980737;19;20488;-68
2023/04/17 00:18:50;;;;;;;6.40;4.40;;;;;;;;;;12978100;19;19931;-69
2023/04/17 00:23:08;;;;;;;6.30;3.90;;;;;;;;;;12977341;19;20014;-68
2023/04/17 00:27:26;;;;;;;5.60;4.13;;;;;;;;;;12979600;19;20335;-68
2023/04/17 00:31:43;;;;;;;8.82;5.47;;;;;;;;;;12979010;19;20015;-69
2023/04/17 00:36:01;;;;;;;7.80;4.80;;;;;;;;;;12977262;19;20034;-70
2023/04/17 00:40:19;;;;;;;7.32;4.28;;;;;;;;;;12989494;19;20032;-68
2023/04/17 00:44:36;;;;;;;5.82;4.32;;;;;;;;;;12990814;19;19999;-68
2023/04/17 00:48:54;;;;;;;7.05;5.25;;;;;;;;;;12989771;19;20023;-68
2023/04/17 00:53:13;;;;;;;7.20;4.45;;;;;;;;;;12987508;19;20015;-68
2023/04/17 00:57:31;;;;;;;7.97;5.15;;;;;;;;;;12990597;19;20315;-68
2023/04/17 01:01:48;;;;;;;7.28;4.75;;;;;;;;;;12991447;19;20469;-69
2023/04/17 01:06:06;;;;;;;6.68;4.65;;;;;;;;;;12991569;19;21127;-68
2023/04/17 01:10:24;;;;;;;7.47;4.80;;;;;;;;;;12988979;19;20015;-69
2023/04/17 01:14:42;;;;;;;6.75;4.97;;;;;;;;;;12990090;19;20042;-68
2023/04/17 01:18:59;;;;;;;8.30;5.45;;;;;;;;;;12989418;19;20022;-68
2023/04/17 01:23:17;;;;;;;7.57;5.07;;;;;;;;;;12987604;19;20021;-69
2023/04/17 01:27:35;;;;;;;9.18;5.25;;;;;;;;;;12989599;19;20017;-68
2023/04/17 01:31:52;;;;;;;9.05;5.30;;;;;;;;;;12989071;19;20011;-68
2023/04/17 01:36:10;;;;;;;9.52;4.80;;;;;;;;;;12989536;19;20025;-68
2023/04/17 01:40:27;;;;;;;8.70;5.45;;;;;;;;;;12989440;19;20010;-68
2023/04/17 01:44:45;;;;;;;7.60;4.35;;;;;;;;;;12989213;19;20014;-68
2023/04/17 01:49:03;;;;;;;8.00;5.65;;;;;;;;;;12985742;19;20033;-68
2023/04/17 01:53:21;;;;;;;;;;;;;;;;;;12989269;19;20030;-69
2023/04/17 01:57:38;;;;;;;8.27;5.40;;;;;;;;;;12988255;19;20911;-68
2023/04/17 02:01:56;;;;;;;8.88;5.00;;;;;;;;;;12987142;19;20044;-68
2023/04/17 02:06:15;;;;;;;8.07;5.28;;;;;;;;;;12986496;19;20044;-69
2023/04/17 02:10:33;;;;;;;8.07;5.32;;;;;;;;;;12986797;19;20018;-68
2023/04/17 02:14:51;;;;;;;7.85;5.47;;;;;;;;;;12986711;19;20014;-68
2023/04/17 02:19:08;;;;;;;9.60;5.32;;;;;;;;;;12985681;19;20481;-69
2023/04/17 02:23:26;;;;;;;9.15;5.32;;;;;;;;;;12985227;19;20277;-68
2023/04/17 02:27:44;;;;;;;9.15;6.25;;;;;;;;;;12986784;19;20018;-68
2023/04/17 02:32:01;;;;;;;6.90;5.15;;;;;;;;;;12985897;19;20027;-69
2023/04/17 02:36:19;;;;;;;10.13;5.45;;;;;;;;;;12985729;19;20015;-68
2023/04/17 02:40:37;;;;;;;7.45;5.55;;;;;;;;;;12985334;19;20015;-68
2023/04/17 02:44:55;;;;;;;9.02;5.68;;;;;;;;;;12985310;19;20015;-68
2023/04/17 02:49:13;;;;;;;10.25;5.97;;;;;;;;;;12984832;19;20010;-68
2023/04/17 02:53:31;;;;;;;9.27;5.85;;;;;;;;;;12985034;19;20002;-68
2023/04/17 02:57:48;;;;;;;9.50;6.28;;;;;;;;;;12984178;19;20018;-68
2023/04/17 03:02:06;;;;;;;8.00;5.72;;;;;;;;;;12981842;19;20035;-69
2023/04/17 03:06:25;;;;;;;;;;;;;;;;;;12985530;19;20015;-69
2023/04/17 03:10:43;;;;;;;9.60;5.72;;;;;;;;;;12984573;19;19922;-68
2023/04/17 03:15:01;;;;;;;9.13;6.38;;;;;;;;;;12984570;19;20022;-68
2023/04/17 03:19:19;;;;;;;14.52;9.52;;;;;;;;;;12983986;19;20312;-68
2023/04/17 03:23:36;;;;;;;11.02;7.25;;;;;;;;;;12981651;19;20010;-68
2023/04/17 03:27:55;;;;;;;11.60;6.88;;;;;;;;;;12983739;19;20018;-68
2023/04/17 03:32:13;;;;;;;13.13;7.53;;;;;;;;;;12983040;19;20022;-68
2023/04/17 03:36:31;;;;;;;12.27;7.90;;;;;;;;;;12982607;19;20010;-68
2023/04/17 03:40:49;;;;;;;15.45;8.15;;;;;;;;;;12981925;19;20014;-68
2023/04/17 03:45:07;;;;;;;;;;;;;;;;;;12981979;19;20018;-68
2023/04/17 03:49:25;;;;;;;;;;;;;;;;;;12982531;19;19922;-69
2023/04/17 03:53:42;;;;;;;12.88;8.55;;;;;;;;;;12981796;19;19915;-69
2023/04/17 03:58:00;;;;;;;10.75;7.25;;;;;;;;;;12981087;19;20027;-68
2023/04/17 04:02:18;;;;;;;12.75;6.72;;;;;;;;;;12980174;19;20075;-68
2023/04/17 04:06:36;;;;;;;10.45;6.88;;;;;;;;;;12980751;19;20003;-68
2023/04/17 04:10:54;;;;;;;10.77;7.55;;;;;;;;;;12981109;19;20339;-68
2023/04/17 04:15:12;;;;;;;11.98;7.63;;;;;;;;;;12992628;19;20465;-68
2023/04/17 04:19:29;;;;;;;10.55;6.53;;;;;;;;;;12992881;19;20015;-68
2023/04/17 04:23:48;;;;;;;11.07;7.32;;;;;;;;;;12990372;19;20010;-68
2023/04/17 04:28:06;;;;;;;11.02;6.95;;;;;;;;;;12990597;19;20019;-68
2023/04/17 04:32:24;;;;;;;12.15;7.82;;;;;;;;;;12991118;19;20018;-68
2023/04/17 04:36:48;;;;;;;14.40;8.65;;;;;;;;;;12991015;19;20466;-68
2023/04/17 04:41:09;;;;;;;12.20;7.57;;;;;;;;;;12990211;19;20063;-68
2023/04/17 04:45:26;;;;;;;9.77;6.18;;;;;;;;;;12991488;19;20006;-68
2023/04/17 04:49:44;;;;;;;10.05;6.43;;;;;;;;;;12990184;19;20014;-68
2023/04/17 04:54:02;;;;;;;11.38;6.95;;;;;;;;;;12989235;19;20007;-68
2023/04/17 04:58:20;;;;;;;10.57;6.97;;;;;;;;;;12989790;19;20007;-68
2023/04/17 05:02:37;;;;;;;9.43;5.57;;;;;;;;;;12990134;19;20017;-68
2023/04/17 05:06:56;;;;;;;;;;;;;;;;;;12990152;19;20033;-69
2023/04/17 05:11:14;;;;;;;12.55;7.68;;;;;;;;;;12987091;19;19929;-69
2023/04/17 05:15:32;;;;;;;11.52;6.82;;;;;;;;;;12988607;19;20010;-69
2023/04/17 05:19:50;;;;;;;14.90;9.43;;;;;;;;;;12988867;19;20347;-69
2023/04/17 05:24:08;;;;;;;14.30;8.50;;;;;;;;;;12986207;19;20302;-69
2023/04/17 05:28:28;;;;;;;12.05;7.68;;;;;;;;;;12988058;19;20066;-69
2023/04/17 05:32:47;;;;;;;13.18;7.95;;;;;;;;;;12988132;19;20027;-69
2023/04/17 05:37:05;;;;;;;13.25;8.05;;;;;;;;;;12987092;19;20010;-69
2023/04/17 05:41:23;;;;;;;15.27;7.93;;;;;;;;;;12986563;19;20018;-69
2023/04/17 05:45:41;;;;;;;11.93;7.35;;;;;;;;;;12987662;19;20022;-69
2023/04/17 05:49:59;;;;;;;10.38;6.65;;;;;;;;;;12987958;19;20022;-69
2023/04/17 05:54:17;;;;;;;;;;;;;;;;;;12987692;19;20018;-68
2023/04/17 05:58:34;;;;;;;9.73;6.47;;;;;;;;;;12987179;19;20326;-69
2023/04/17 06:02:52;;;;;;;;;;;;;;;;;;12986160;19;20015;-68
2023/04/17 06:07:10;;;;;;;9.38;5.07;;;;;;;;;;12985756;19;19911;-69
2023/04/17 06:11:28;;;;;;;8.07;4.85;;;;;;;;;;12985289;19;20034;-70
2023/04/17 06:15:45;;;;;;;6.95;5.35;;;;;;;;;;12985396;19;20044;-69
2023/04/17 06:20:08;;;;;;;11.43;6.03;;;;;;;;;;12977985;19;20044;-68
2023/04/17 06:24:26;;;;;;;9.20;6.20;;;;;;;;;;12975925;19;20545;-68
2023/04/17 06:28:44;;;;;;;;;;;;;;;;;;12986084;19;20366;-69
2023/04/17 06:33:01;;;;;;;14.10;7.80;;;;;;;;;;12984408;19;19926;-70
2023/04/17 06:37:19;;;;;;;12.48;7.25;;;;;;;;;;12982593;19;20018;-69
2023/04/17 06:41:37;;;;;;;16.42;9.52;;;;;;;;;;12983536;19;20454;-69
2023/04/17 06:45:55;;;;;;;13.32;7.35;;;;;;;;;;12983807;19;20018;-69
2023/04/17 06:50:13;;;;;;;16.42;6.97;;;;;;;;;;12982314;19;20373;-69
2023/04/17 06:54:31;;;;;;;12.95;7.15;;;;;;;;;;12983293;19;20021;-69
2023/04/17 06:58:48;;;;;;;18.92;8.20;;;;;;;;;;12981473;19;20018;-68
2023/04/17 07:03:06;;;;;;;12.48;7.57;;;;;;;;;;12980212;19;20237;-69
2023/04/17 07:07:25;;;;;;;11.35;6.72;;;;;;;;;;12982333;19;20477;-69
2023/04/17 07:11:44;;;;;;;11.82;7.07;;;;;;;;;;12981790;19;20011;-69
2023/04/17 07:16:02;;;;;;;11.73;7.10;;;;;;;;;;12981890;19;20034;-69
2023/04/17 07:20:20;;;;;;;11.52;7.80;;;;;;;;;;12981923;19;20021;-68
2023/04/17 07:24:38;;;;;;;10.27;7.05;;;;;;;;;;12981510;19;20477;-69
2023/04/17 07:28:55;;;;;;;9.57;6.78;;;;;;;;;;12981087;19;20419;-69
2023/04/17 07:33:13;;;;;;;10.98;7.00;;;;;;;;;;12980504;19;20355;-70
2023/04/17 07:37:32;;;;;;;11.65;7.82;;;;;;;;;;12980955;19;20010;-69
2023/04/17 07:41:50;;;;;;;11.90;7.15;;;;;;;;;;12980371;19;20031;-70
2023/04/17 07:46:08;;;;;;;8.55;5.78;;;;;;;;;;12980497;19;20014;-69
2023/04/17 07:50:26;;;;;;;7.18;4.85;;;;;;;;;;12993448;19;20031;-70
2023/04/17 07:54:44;;;;;;;8.35;5.07;;;;;;;;;;12992976;19;20013;-69
2023/04/17 07:59:02;;;;;;;8.68;5.88;;;;;;;;;;12992794;19;20015;-69
2023/04/17 08:03:22;;;;;;;13.38;6.38;;;;;;;;;;12992964;19;20474;-70
2023/04/17 08:07:43;;;;;;;9.45;6.72;;;;;;;;;;12993292;19;20022;-69
2023/04/17 08:12:00;;;;;;;9.93;6.93;;;;;;;;;;12990648;19;20011;-69
2023/04/17 08:16:18;;;;;;;;;;;;;;;;;;12992843;19;20402;-69
2023/04/17 08:20:36;;;;;;;11.77;6.75;;;;;;;;;;12990664;19;19930;-69
2023/04/17 08:24:57;;;;;;;10.02;5.57;;;;;;;;;;12991037;19;20027;-68
2023/04/17 08:29:15;;;;;;;8.07;4.90;;;;;;;;;;12990777;19;20446;-70
2023/04/17 08:33:32;;;;;;;7.45;5.18;;;;;;;;;;12988953;19;20289;-69
2023/04/17 08:37:50;;;;;;;35.35;14.05;;;;;;;;;;12990540;19;20033;-70
2023/04/17 08:42:09;;;;;;;8.00;5.03;;;;;;;;;;12989245;19;20018;-70
2023/04/17 08:46:35;;;;;;;10.32;5.55;;;;;;;;;;12988834;19;20258;-69
2023/04/17 08:50:53;;;;;;;8.40;5.32;;;;;;;;;;12990482;19;20018;-70
2023/04/17 08:55:14;;;;;;;5.50;3.15;;;;;;;;;;12990186;19;20469;-70
2023/04/17 08:59:32;;;;;;;8.52;4.70;;;;;;;;;;12989355;19;20010;-69
2023/04/17 09:03:51;;;;;;;8.90;5.10;;;;;;;;;;12989669;19;20465;-70
2023/04/17 09:08:28;;;;;;;7.13;5.07;;;;;;;;;;12988511;19;20038;-70
2023/04/17 09:12:59;;;;;;;10.40;5.70;;;;;;;;;;12989196;19;20003;-70
2023/04/17 09:17:19;;;;;;;11.00;6.07;;;;;;;;;;12988455;19;20451;-70
2023/04/17 09:21:38;;;;;;;9.70;5.38;;;;;;;;;;12987382;19;20011;-70
2023/04/17 09:26:19;;;;;;;8.35;5.70;;;;;;;;;;12985767;19;20014;-70
2023/04/17 09:30:38;;;;;;;9.43;5.65;;;;;;;;;;12974347;19;20510;-71
2023/04/17 09:34:59;;;;;;;9.98;5.75;;;;;;;;;;12986888;19;20006;-71
2023/04/17 09:39:24;;;;;;;7.78;5.68;;;;;;;;;;12987825;19;20017;-71
2023/04/17 09:43:42;;;;;;;8.15;5.80;;;;;;;;;;12987368;19;20031;-70
2023/04/17 09:48:04;;;;;;;7.40;5.13;;;;;;;;;;12985008;19;20031;-70
2023/04/17 09:52:22;;;;;;;9.63;6.63;;;;;;;;;;12984622;19;20045;-71
2023/04/17 09:56:43;;;;;;;10.30;5.40;;;;;;;;;;12985936;19;20469;-70
2023/04/17 10:01:02;;;;;;;11.18;6.47;;;;;;;;;;12985345;19;20014;-70
2023/04/17 10:05:29;;;;;;;7.95;5.55;;;;;;;;;;12986260;19;20011;-70
2023/04/17 10:09:46;;;;;;;10.88;6.22;;;;;;;;;;12982813;19;20026;-70
2023/04/17 10:14:16;;;;;;;10.15;6.28;;;;;;;;;;12984788;19;20014;-70
2023/04/17 10:18:34;;;;;;;8.13;5.53;;;;;;;;;;12983627;19;20496;-70
2023/04/17 10:22:55;;;;;;;8.85;6.15;;;;;;;;;;12983539;19;20398;-69
2023/04/17 10:27:25;;;;;;;10.52;7.13;;;;;;;;;;12985103;19;20022;-70
2023/04/17 10:32:27;;;;;;;9.02;5.80;;;;;;;;;;12985058;19;20008;-71
2023/04/17 10:36:48;;;;;;;8.15;5.65;;;;;;;;;;12984582;19;20022;-70
2023/04/17 10:41:08;;;;;;;8.98;5.85;;;;;;;;;;12983384;19;20018;-70
2023/04/17 10:46:12;;;;;;;9.48;5.88;;;;;;;;;;12983702;19;20014;-67
2023/04/17 10:50:30;;;;;;;9.13;5.43;;;;;;;;;;12981642;19;20020;-66
2023/04/17 10:55:15;;;;;;;8.20;5.15;;;;;;;;;;12983561;19;20014;-66
2023/04/17 10:59:33;;;;;;;9.65;5.93;;;;;;;;;;12981799;19;20010;-66
2023/04/17 11:03:50;;;;;;;8.73;4.75;;;;;;;;;;12980311;19;20027;-65
2023/04/17 11:08:09;;;;;;;6.30;4.55;;;;;;;;;;12980645;19;20018;-65
2023/04/17 11:12:30;;;;;;;5.55;3.60;;;;;;;;;;12982886;19;20018;-65
2023/04/17 11:16:50;;;;;;;5.40;3.33;;;;;;;;;;12982145;19;20046;-65
2023/04/17 11:21:12;;;;;;;4.35;2.55;;;;;;;;;;12980434;19;20277;-66
2023/04/17 11:25:32;;;;;;;4.50;3.28;;;;;;;;;;12981655;19;20523;-65
2023/04/17 11:29:51;;;;;;;5.68;3.90;;;;;;;;;;12982061;19;20022;-66
2023/04/17 11:34:10;;;;;;;4.90;3.83;;;;;;;;;;12981800;19;20026;-67
2023/04/17 11:38:27;;;;;;;5.35;3.60;;;;;;;;;;12980448;19;20492;-66
2023/04/17 11:42:45;;;;;;;6.20;4.10;;;;;;;;;;12978466;19;20548;-65
2023/04/17 11:47:04;;;;;;;5.93;4.18;;;;;;;;;;12980143;19;20501;-65
2023/04/17 11:51:22;;;;;;;12.43;6.13;;;;;;;;;;12980772;19;20021;-65
2023/04/17 11:55:40;;;;;;;9.68;5.63;;;;;;;;;;12980561;19;20018;-65
2023/04/17 11:59:57;;;;;;;;;;;;;;;;;;12980272;19;20011;-65
2023/04/17 12:04:20;;;;;;;8.57;5.60;;;;;;;;;;12978656;19;20395;-65
2023/04/17 12:08:52;;;;;;;12.82;9.02;;;;;;;;;;12979797;19;20036;-65
2023/04/17 12:13:10;;;;;;;18.45;8.80;;;;;;;;;;12979233;19;20015;-66
2023/04/17 12:17:28;;;;;;;8.70;6.05;;;;;;;;;;12979689;19;20011;-66
2023/04/17 12:21:46;;;;;;;11.88;6.88;;;;;;;;;;12977985;19;20085;-65
2023/04/17 12:26:04;;;;;;;;;;;;;;;;;;12978872;19;20022;-66
2023/04/17 12:30:23;;;;;;;11.75;6.00;;;;;;;;;;12978365;19;19935;-65
2023/04/17 12:34:40;;;;;;;6.88;4.30;;;;;;;;;;12985037;19;20310;-65
2023/04/17 12:38:58;;;;;;;7.22;4.68;;;;;;;;;;12990682;19;20015;-65
2023/04/17 12:43:16;;;;;;;8.10;4.78;;;;;;;;;;12989788;19;20021;-65
2023/04/17 12:47:34;;;;;;;7.95;5.50;;;;;;;;;;12990191;19;20018;-65
2023/04/17 12:51:52;;;;;;;;;;;;;;;;;;12991534;19;20021;-65
2023/04/17 12:56:09;;;;;;;8.50;5.28;;;;;;;;;;12988347;19;19928;-64
2023/04/17 13:00:27;;;;;;;6.18;4.10;;;;;;;;;;12990757;19;20010;-64
2023/04/17 13:04:46;;;;;;;7.35;4.82;;;;;;;;;;12990426;19;20379;-64
2023/04/17 13:09:03;;;;;;;12.00;6.65;;;;;;;;;;12989149;19;20042;-65
2023/04/17 13:13:21;;;;;;;7.60;4.63;;;;;;;;;;12988690;19;20058;-64
2023/04/17 13:17:40;;;;;;;;;;;;;;;;;;12989473;19;20023;-64
2023/04/17 13:21:58;;;;;;;8.18;4.97;;;;;;;;;;12987421;19;19919;-64
2023/04/17 13:26:15;;;;;;;5.75;3.85;;;;;;;;;;12988327;19;20018;-64
2023/04/17 13:30:35;;;;;;;5.68;3.95;;;;;;;;;;12987998;19;20014;-64
2023/04/17 13:34:54;;;;;;;7.97;6.13;;;;;;;;;;12988318;19;20042;-65
2023/04/17 13:39:14;;;;;;;8.10;5.47;;;;;;;;;;12987339;19;20014;-65
2023/04/17 13:43:32;;;;;;;11.73;7.32;;;;;;;;;;12987199;19;20022;-65
2023/04/17 13:47:50;;;;;;;9.70;6.32;;;;;;;;;;12988034;19;20020;-65
2023/04/17 13:52:08;;;;;;;9.43;5.15;;;;;;;;;;12987447;19;20481;-65
2023/04/17 13:56:26;;;;;;;6.70;4.32;;;;;;;;;;12987224;19;20014;-65
2023/04/17 14:00:45;;;;;;;11.38;6.78;;;;;;;;;;12986887;19;20014;-64
2023/04/17 14:05:03;;;;;;;8.25;5.40;;;;;;;;;;12985857;19;20026;-66
2023/04/17 14:09:21;;;;;;;7.40;5.30;;;;;;;;;;12986401;19;20038;-64
2023/04/17 14:13:39;;;;;;;8.55;4.70;;;;;;;;;;12985355;19;20010;-64
2023/04/17 14:17:56;;;;;;;;;;;;;;;;;;12986577;19;20014;-64
2023/04/17 14:22:14;;;;;;;12.35;5.53;;;;;;;;;;12983520;19;19926;-64
2023/04/17 14:26:32;;;;;;;10.52;5.18;;;;;;;;;;12985324;19;20014;-64
2023/04/17 14:30:49;;;;;;;6.55;4.53;;;;;;;;;;12985265;19;20014;-64
2023/04/17 14:35:08;;;;;;;13.35;5.78;;;;;;;;;;12984803;19;20509;-64
2023/04/17 14:39:25;;;;;;;8.50;5.20;;;;;;;;;;12984807;19;20021;-64
2023/04/17 14:43:47;;;;;;;8.40;4.93;;;;;;;;;;12983476;19;20026;-64
2023/04/17 14:48:05;;;;;;;8.38;5.75;;;;;;;;;;12983448;19;20035;-65
2023/04/17 14:52:22;;;;;;;5.93;3.92;;;;;;;;;;12984228;19;20014;-64
2023/04/17 14:56:40;;;;;;;22.45;12.77;;;;;;;;;;12981419;19;20018;-64
2023/04/17 15:00:58;;;;;;;9.70;5.97;;;;;;;;;;12981039;19;20018;-64
2023/04/17 15:05:19;;;;;;;7.72;4.70;;;;;;;;;;12981791;19;20018;-65
2023/04/17 15:09:37;;;;;;;8.43;5.50;;;;;;;;;;12982975;19;20411;-65
2023/04/17 15:13:55;;;;;;;35.95;23.20;;;;;;;;;;12982078;19;20015;-64
2023/04/17 15:18:12;;;;;;;15.35;7.80;;;;;;;;;;12982149;19;20026;-64
2023/04/17 15:22:30;;;;;;;10.80;5.90;;;;;;;;;;12980480;19;20015;-64
2023/04/17 15:26:50;;;;;;;;;;;;;;;;;;12983333;19;20015;-64
2023/04/17 15:31:07;;;;;;;9.63;4.90;;;;;;;;;;12981514;19;19943;-65
2023/04/17 15:35:25;;;;;;;12.25;5.00;;;;;;;;;;12982177;19;20021;-64
2023/04/17 15:39:43;;;;;;;9.27;5.68;;;;;;;;;;12981332;19;20017;-64
2023/04/17 15:44:01;;;;;;;7.22;5.15;;;;;;;;;;12980159;19;20462;-64
2023/04/17 15:48:18;;;;;;;9.48;5.90;;;;;;;;;;12980766;19;20021;-63
2023/04/17 15:52:36;;;;;;;9.07;5.03;;;;;;;;;;12980659;19;20014;-63
2023/04/17 15:56:55;;;;;;;;;;;;;;;;;;12981029;19;20548;-65
2023/04/17 16:01:13;;;;;;;9.15;5.45;;;;;;;;;;12979665;19;20299;-64
2023/04/17 16:05:30;;;;;;;8.43;5.13;;;;;;;;;;12978824;19;20022;-65
2023/04/17 16:09:49;;;;;;;14.15;7.40;;;;;;;;;;12989116;19;20473;-64
2023/04/17 16:14:07;;;;;;;19.42;9.70;;;;;;;;;;12992382;19;20030;-64
2023/04/17 16:18:24;;;;;;;16.73;10.60;;;;;;;;;;12992418;19;20015;-64
2023/04/17 16:22:43;;;;;;;12.27;7.05;;;;;;;;;;12990103;19;20028;-64
2023/04/17 16:27:01;;;;;;;47.83;22.77;;;;;;;;;;12991343;19;20042;-64
2023/04/17 16:31:20;;;;;;;18.20;13.13;;;;;;;;;;12991469;19;20014;-64
2023/04/17 16:35:37;;;;;;;13.30;8.13;;;;;;;;;;12991294;19;20015;-64
2023/04/17 16:39:55;;;;;;;11.40;6.57;;;;;;;;;;12990614;19;20011;-64
2023/04/17 16:44:12;;;;;;;9.57;5.43;;;;;;;;;;12989703;19;20010;-64
2023/04/17 16:48:30;;;;;;;9.15;5.28;;;;;;;;;;12990875;19;20006;-64
2023/04/17 16:52:49;;;;;;;12.05;5.47;;;;;;;;;;12991234;19;20393;-64
2023/04/17 16:57:07;;;;;;;11.35;4.70;;;;;;;;;;12989916;19;20032;-65
2023/04/17 17:01:25;;;;;;;8.13;4.85;;;;;;;;;;12990499;19;20402;-64
2023/04/17 17:05:43;;;;;;;7.18;4.55;;;;;;;;;;12989444;19;20014;-64
2023/04/17 17:10:01;;;;;;;8.07;4.45;;;;;;;;;;12989242;19;20014;-64
2023/04/17 17:14:19;;;;;;;6.32;3.80;;;;;;;;;;12988853;19;20105;-63
2023/04/17 17:18:37;;;;;;;5.95;3.42;;;;;;;;;;12988414;19;20021;-63
2023/04/17 17:22:55;;;;;;;7.60;4.72;;;;;;;;;;12987678;19;20014;-63
2023/04/17 17:27:14;;;;;;;5.97;3.70;;;;;;;;;;12988208;19;20485;-64
2023/04/17 17:31:32;;;;;;;7.47;3.60;;;;;;;;;;12988693;19;20025;-63
2023/04/17 17:35:50;;;;;;;7.28;4.05;;;;;;;;;;12988945;19;20468;-63
2023/04/17 17:40:09;;;;;;;5.50;3.83;;;;;;;;;;12987520;19;20010;-63
2023/04/17 17:44:26;;;;;;;6.75;4.57;;;;;;;;;;12987024;19;20027;-64
2023/04/17 17:48:44;;;;;;;5.95;3.63;;;;;;;;;;12987472;19;20010;-64
2023/04/17 17:53:02;;;;;;;4.78;2.97;;;;;;;;;;12986488;19;20539;-64
2023/04/17 17:57:20;;;;;;;5.55;3.90;;;;;;;;;;12986877;19;20022;-63
2023/04/17 18:01:38;;;;;;;6.28;3.75;;;;;;;;;;12986424;19;20018;-64
2023/04/17 18:05:56;;;;;;;4.03;3.53;;;;;;;;;;12985698;19;20356;-63
2023/04/17 18:10:15;;;;;;;8.50;4.35;;;;;;;;;;12985905;19;20026;-64
2023/04/17 18:14:33;;;;;;;6.75;3.78;;;;;;;;;;12986695;19;20007;-63
2023/04/17 18:18:50;;;;;;;7.95;4.47;;;;;;;;;;12986587;19;20371;-63
2023/04/17 18:23:08;;;;;;;6.38;3.72;;;;;;;;;;12982808;19;20041;-64
2023/04/17 18:27:26;;;;;;;13.65;6.53;;;;;;;;;;12985233;19;20573;-63
2023/04/17 18:31:44;;;;;;;11.63;5.55;;;;;;;;;;12983120;19;20604;-64
2023/04/17 18:36:02;;;;;;;23.10;11.88;;;;;;;;;;12983856;19;20044;-64
2023/04/17 18:40:20;;;;;;;11.27;4.93;;;;;;;;;;12984178;19;20568;-63
2023/04/17 18:44:38;;;;;;;7.82;4.25;;;;;;;;;;12983927;19;20089;-64
2023/04/17 18:48:56;;;;;;;4.93;2.83;;;;;;;;;;12984031;19;20015;-63
2023/04/17 18:53:15;;;;;;;5.50;2.63;;;;;;;;;;12982827;19;20303;-64
2023/04/17 18:57:32;;;;;;;3.63;2.05;;;;;;;;;;12984003;19;20022;-63
2023/04/17 19:01:51;;;;;;;4.47;2.92;;;;;;;;;;12984307;19;20018;-64
2023/04/17 19:06:09;;;;;;;3.28;2.13;;;;;;;;;;12982462;19;20065;-64
2023/04/17 19:10:28;;;;;;;;;;;;;;;;;;12983761;19;21403;-64
2023/04/17 19:14:46;;;;;;;4.95;2.97;;;;;;;;;;12982357;19;19949;-64
2023/04/17 19:19:04;;;;;;;2.95;2.15;;;;;;;;;;12982192;19;20031;-64
2023/04/17 19:23:22;;;;;;;6.18;3.50;;;;;;;;;;12981308;19;20038;-64
2023/04/17 19:27:40;;;;;;;6.65;2.97;;;;;;;;;;12981970;19;20031;-64
2023/04/17 19:31:58;;;;;;;3.42;2.55;;;;;;;;;;12981602;19;20007;-64
2023/04/17 19:36:16;;;;;;;7.25;4.03;;;;;;;;;;12981357;19;20011;-64
2023/04/17 19:40:34;;;;;;;6.00;4.10;;;;;;;;;;12981393;19;20039;-64
2023/04/17 19:44:52;;;;;;;6.65;3.65;;;;;;;;;;12980863;19;20023;-64
2023/04/17 19:49:10;;;;;;;5.40;2.50;;;;;;;;;;12981324;19;20038;-64
2023/04/17 19:53:30;;;;;;;4.93;2.60;;;;;;;;;;12980317;19;20073;-64
2023/04/17 19:57:49;;;;;;;7.00;3.70;;;;;;;;;;12979741;19;20470;-64
2023/04/17 20:02:09;;;;;;;9.25;5.10;;;;;;;;;;12980095;19;20015;-65
2023/04/17 20:06:26;;;;;;;26.15;10.38;;;;;;;;;;12977242;19;20337;-64
2023/04/17 20:10:44;;;;;;;8.70;3.95;;;;;;;;;;12980220;19;20011;-64
2023/04/17 20:15:02;;;;;;;5.47;3.13;;;;;;;;;;12978928;19;20022;-68
2023/04/17 20:19:20;;;;;;;9.88;5.65;;;;;;;;;;12979549;19;20028;-64
2023/04/17 20:23:38;;;;;;;8.65;4.15;;;;;;;;;;12976210;19;20025;-64
2023/04/17 20:27:56;;;;;;;4.03;2.50;;;;;;;;;;12979368;19;20143;-64
2023/04/17 20:32:14;;;;;;;4.15;2.53;;;;;;;;;;12978691;19;20031;-64
2023/04/17 20:36:31;;;;;;;3.95;2.42;;;;;;;;;;12979188;19;20402;-64
2023/04/17 20:40:49;;;;;;;2.63;1.95;;;;;;;;;;12978665;19;20132;-64
2023/04/17 20:45:08;;;;;;;2.53;1.92;;;;;;;;;;12976441;19;20015;-64
2023/04/17 20:49:25;;;;;;;3.08;1.50;;;;;;;;;;12978178;19;20040;-64
2023/04/17 20:53:44;;;;;;;2.33;1.60;;;;;;;;;;12978342;19;20039;-64
2023/04/17 20:58:01;;;;;;;3.22;1.63;;;;;;;;;;12989434;19;20015;-66
2023/04/17 21:02:20;;;;;;;3.08;1.80;;;;;;;;;;12989994;19;20355;-64
2023/04/17 21:06:38;;;;;;;2.35;1.63;;;;;;;;;;12988516;19;20401;-64
2023/04/17 21:10:56;;;;;;;2.38;1.45;;;;;;;;;;12989529;19;20041;-64
2023/04/17 21:15:13;;;;;;;1.38;1.20;;;;;;;;;;12988731;19;20031;-64
2023/04/17 21:19:34;;;;;;;2.58;1.48;;;;;;;;;;12988952;19;20010;-64
2023/04/17 21:23:52;;;;;;;2.22;1.63;;;;;;;;;;12988219;19;20010;-64
2023/04/17 21:28:10;;;;;;;2.75;1.65;;;;;;;;;;12988574;19;20018;-64
2023/04/17 21:32:27;;;;;;;2.65;1.55;;;;;;;;;;12988904;19;20015;-64
2023/04/17 21:36:47;;;;;;;1.88;1.30;;;;;;;;;;12988909;19;20014;-64
2023/04/17 21:41:04;;;;;;;1.92;1.20;;;;;;;;;;12987582;19;20031;-64
2023/04/17 21:45:22;;;;;;;1.27;1.17;;;;;;;;;;12986883;19;20011;-64
2023/04/17 21:49:39;;;;;;;1.95;1.27;;;;;;;;;;12987476;19;20482;-64
2023/04/17 21:53:58;;;;;;;2.60;1.58;;;;;;;;;;12987351;19;20025;-64
2023/04/17 21:58:15;;;;;;;1.92;1.17;;;;;;;;;;12985881;19;20502;-64
2023/04/17 22:02:33;;;;;;;1.85;1.27;;;;;;;;;;12985860;19;20034;-64
2023/04/17 22:06:51;;;;;;;5.38;2.30;;;;;;;;;;12983488;19;20014;-64
2023/04/17 22:11:09;;;;;;;;;;;;;;;;;;12986718;19;20017;-64
2023/04/17 22:15:26;;;;;;;2.05;1.50;;;;;;;;;;12987180;19;19948;-64
2023/04/17 22:19:45;;;;;;;3.22;1.50;;;;;;;;;;12987872;19;20249;-64
2023/04/17 22:24:03;;;;;;;2.50;1.60;;;;;;;;;;12984019;19;20015;-64
2023/04/17 22:28:20;;;;;;;1.17;0.90;;;;;;;;;;12986253;19;20018;-64
2023/04/17 22:32:38;;;;;;;3.70;1.70;;;;;;;;;;12986116;19;20021;-64
2023/04/17 22:36:56;;;;;;;2.40;1.77;;;;;;;;;;12986282;19;20015;-64
2023/04/17 22:41:14;;;;;;;2.35;1.63;;;;;;;;;;12985100;19;20013;-64
2023/04/17 22:45:31;;;;;;;1.65;1.30;;;;;;;;;;12984558;19;20018;-64
2023/04/17 22:49:51;;;;;;;3.40;2.05;;;;;;;;;;12985729;19;20021;-64
2023/04/17 22:54:08;;;;;;;2.55;1.55;;;;;;;;;;12983315;19;20353;-64
2023/04/17 22:58:38;;;;;;;3.03;1.60;;;;;;;;;;12985614;19;20019;-64
2023/04/17 23:02:56;;;;;;;1.55;1.05;;;;;;;;;;12985087;19;20015;-64
2023/04/17 23:07:14;;;;;;;1.75;1.23;;;;;;;;;;12983722;19;20027;-64
2023/04/17 23:11:33;;;;;;;2.38;1.25;;;;;;;;;;12983858;19;20014;-64
2023/04/17 23:15:51;;;;;;;2.08;1.38;;;;;;;;;;12983482;19;20018;-64
2023/04/17 23:20:09;;;;;;;2.10;1.33;;;;;;;;;;12982709;19;20014;-64
2023/04/17 23:24:27;;;;;;;1.20;1.10;;;;;;;;;;12982202;19;20010;-64
2023/04/17 23:28:44;;;;;;;1.48;1.15;;;;;;;;;;12983417;19;20018;-64
2023/04/17 23:33:02;;;;;;;2.25;1.60;;;;;;;;;;12982618;19;20044;-64
2023/04/17 23:37:19;;;;;;;1.48;1.10;;;;;;;;;;12983177;19;20371;-64
2023/04/17 23:41:41;;;;;;;2.33;1.27;;;;;;;;;;12982756;19;20474;-64
2023/04/17 23:45:59;;;;;;;2.42;1.00;;;;;;;;;;12981902;19;20018;-64
2023/04/17 23:50:17;;;;;;;1.98;1.35;;;;;;;;;;12981853;19;20018;-64
2023/04/17 23:54:35;;;;;;;2.35;1.60;;;;;;;;;;12981940;19;20014;-64
2023/04/17 23:58:53;;;;;;;1.83;1.30;;;;;;;;;;12982151;19;20027;-64
